createdAt,value
2023-03-04T00:02:19.576Z,10.60
2023-03-04T00:04:46.345Z,12.73
2023-03-04T00:07:16.688Z,13.53
2023-03-04T00:09:44.892Z,15.20
2023-03-04T00:12:11.611Z,15.37
2023-03-04T00:14:38.645Z,13.70
2023-03-04T00:17:05.372Z,12.07
2023-03-04T00:19:32.037Z,9.70
2023-03-04T00:21:58.943Z,21.70
2023-03-04T00:24:25.728Z,9.87
2023-03-04T00:26:52.406Z,12.30
2023-03-04T00:29:19.100Z,11.60
2023-03-04T00:31:45.981Z,10.20
2023-03-04T00:34:12.673Z,13.90
2023-03-04T00:36:39.448Z,15.37
2023-03-04T00:39:06.113Z,13.00
2023-03-04T00:41:32.813Z,11.17
2023-03-04T00:43:59.444Z,15.40
2023-03-04T00:46:26.153Z,13.10
2023-03-04T00:48:53.168Z,13.57
2023-03-04T00:51:19.796Z,14.57
2023-03-04T00:53:47.688Z,12.93
2023-03-04T00:56:14.671Z,12.30
2023-03-04T00:58:41.326Z,12.43
2023-03-04T01:01:08.223Z,14.90
2023-03-04T01:03:35.042Z,12.30
2023-03-04T01:06:01.986Z,13.63
2023-03-04T01:08:28.815Z,11.77
2023-03-04T01:10:55.496Z,12.80
2023-03-04T01:13:22.228Z,14.30
2023-03-04T01:15:48.928Z,13.73
2023-03-04T01:18:15.874Z,13.53
2023-03-04T01:20:42.566Z,12.90
2023-03-04T01:23:09.255Z,14.67
2023-03-04T01:25:35.938Z,12.40
2023-03-04T01:28:02.665Z,10.50
2023-03-04T01:30:29.329Z,12.40
2023-03-04T01:32:56.044Z,13.13
2023-03-04T01:35:22.729Z,14.73
2023-03-04T01:37:49.432Z,10.33
2023-03-04T01:40:16.536Z,13.47
2023-03-04T01:42:44.839Z,14.00
2023-03-04T01:45:15.579Z,14.20
2023-03-04T01:47:48.365Z,13.73
2023-03-04T01:50:29.467Z,14.30
2023-03-04T01:52:56.364Z,10.33
2023-03-04T01:55:24.409Z,11.50
2023-03-04T01:57:52.526Z,13.87
2023-03-04T02:00:30.986Z,12.57
2023-03-04T02:03:04.269Z,15.30
2023-03-04T02:05:31.322Z,13.30
2023-03-04T02:07:59.459Z,10.07
2023-03-04T02:10:26.339Z,12.53
2023-03-04T02:12:53.550Z,11.87
2023-03-04T02:15:21.113Z,13.60
2023-03-04T02:17:47.978Z,13.70
2023-03-04T02:20:44.906Z,15.10
2023-03-04T02:23:35.513Z,13.00
2023-03-04T02:26:28.966Z,15.80
2023-03-04T02:28:57.808Z,14.00
2023-03-04T02:31:36.973Z,12.57
2023-03-04T02:34:13.688Z,14.50
2023-03-04T02:36:41.852Z,17.90
2023-03-04T02:39:36.103Z,13.40
2023-03-04T02:42:03.672Z,13.40
2023-03-04T02:44:35.709Z,12.13
2023-03-04T02:47:03.701Z,13.60
2023-03-04T02:49:32.653Z,14.97
2023-03-04T02:52:15.387Z,21.53
2023-03-04T02:54:42.287Z,17.30
2023-03-04T02:57:11.884Z,15.40
2023-03-04T02:59:39.975Z,14.30
2023-03-04T03:02:08.070Z,12.07
2023-03-04T03:04:38.118Z,16.30
2023-03-04T03:07:05.107Z,15.77
2023-03-04T03:09:31.828Z,13.80
2023-03-04T03:11:58.755Z,14.93
2023-03-04T03:14:25.440Z,14.87
2023-03-04T03:16:52.062Z,17.40
2023-03-04T03:19:18.679Z,22.63
2023-03-04T03:21:45.337Z,36.37
2023-03-04T03:24:12.058Z,19.70
2023-03-04T03:26:40.016Z,19.80
2023-03-04T03:29:08.062Z,18.50
2023-03-04T03:31:34.835Z,18.53
2023-03-04T03:34:01.545Z,17.20
2023-03-04T03:36:28.489Z,19.70
2023-03-04T03:38:55.127Z,19.63
2023-03-04T03:41:21.799Z,19.03
2023-03-04T03:43:48.656Z,21.50
2023-03-04T03:46:15.317Z,20.90
2023-03-04T03:48:42.114Z,22.40
2023-03-04T03:51:08.822Z,15.67
2023-03-04T03:53:35.473Z,22.50
2023-03-04T03:56:02.126Z,26.33
2023-03-04T03:58:28.811Z,22.27
2023-03-04T04:00:58.130Z,17.13
2023-03-04T04:03:25.460Z,20.20
2023-03-04T04:05:52.146Z,25.57
2023-03-04T04:08:19.293Z,16.10
2023-03-04T04:10:46.359Z,21.53
2023-03-04T04:13:13.359Z,24.03
2023-03-04T04:15:40.335Z,19.43
2023-03-04T04:18:07.343Z,19.87
2023-03-04T04:20:34.407Z,16.00
2023-03-04T04:23:02.114Z,18.87
2023-03-04T04:25:28.981Z,21.43
2023-03-04T04:27:55.875Z,20.10
2023-03-04T04:30:22.545Z,19.43
2023-03-04T04:32:49.213Z,22.40
2023-03-04T04:35:15.879Z,23.40
2023-03-04T04:37:42.643Z,25.47
2023-03-04T04:40:09.923Z,21.53
2023-03-04T04:42:36.620Z,20.13
2023-03-04T04:45:03.687Z,19.93
2023-03-04T04:47:30.337Z,22.63
2023-03-04T04:49:56.971Z,19.80
2023-03-04T04:52:23.745Z,21.73
2023-03-04T04:54:50.400Z,19.67
2023-03-04T04:57:17.409Z,27.27
2023-03-04T04:59:44.325Z,22.37
2023-03-04T05:02:11.012Z,17.83
2023-03-04T05:04:37.747Z,18.70
2023-03-04T05:07:04.585Z,22.00
2023-03-04T05:09:31.208Z,21.50
2023-03-04T05:11:57.973Z,30.33
2023-03-04T05:14:24.829Z,28.00
2023-03-04T05:16:52.962Z,19.80
2023-03-04T05:19:21.167Z,24.13
2023-03-04T05:21:47.835Z,25.63
2023-03-04T05:24:14.514Z,21.37
2023-03-04T05:26:41.326Z,28.73
2023-03-04T05:29:08.167Z,23.80
2023-03-04T05:31:34.947Z,22.73
2023-03-04T05:34:01.624Z,18.67
2023-03-04T05:36:28.346Z,21.67
2023-03-04T05:38:55.017Z,20.87
2023-03-04T05:41:22.757Z,22.60
2023-03-04T05:43:50.194Z,23.33
2023-03-04T05:46:19.271Z,27.90
2023-03-04T05:48:46.134Z,20.17
2023-03-04T05:51:12.858Z,26.30
2023-03-04T05:53:41.012Z,33.07
2023-03-04T05:56:10.131Z,25.10
2023-03-04T05:58:37.236Z,25.83
2023-03-04T06:01:04.663Z,26.63
2023-03-04T06:03:31.712Z,26.43
2023-03-04T06:05:58.937Z,89.17
2023-03-04T06:08:25.822Z,65.50
2023-03-04T06:10:54.225Z,91.63
2023-03-04T06:13:21.267Z,98.63
2023-03-04T06:15:49.361Z,62.63
2023-03-04T06:18:16.042Z,58.40
2023-03-04T06:20:43.030Z,51.43
2023-03-04T06:23:09.776Z,48.40
2023-03-04T06:25:36.634Z,38.77
2023-03-04T06:28:03.301Z,33.10
2023-03-04T06:30:30.078Z,33.10
2023-03-04T06:32:56.717Z,27.13
2023-03-04T06:35:23.791Z,36.93
2023-03-04T06:37:50.697Z,24.30
2023-03-04T06:40:17.479Z,19.30
2023-03-04T06:42:44.224Z,23.87
2023-03-04T06:45:11.420Z,26.67
2023-03-04T06:47:38.836Z,24.27
2023-03-04T06:50:06.404Z,22.50
2023-03-04T06:52:33.250Z,25.03
2023-03-04T06:55:00.265Z,20.87
2023-03-04T06:57:27.142Z,20.60
2023-03-04T06:59:53.825Z,28.33
2023-03-04T07:02:20.458Z,20.97
2023-03-04T07:04:47.147Z,27.13
2023-03-04T07:07:14.118Z,18.87
2023-03-04T07:09:41.327Z,26.23
2023-03-04T07:12:08.009Z,24.73
2023-03-04T07:14:34.857Z,26.47
2023-03-04T07:17:01.780Z,23.63
2023-03-04T07:19:28.664Z,28.60
2023-03-04T07:21:55.603Z,25.43
2023-03-04T07:24:22.369Z,22.83
2023-03-04T07:26:49.056Z,22.83
2023-03-04T07:29:15.751Z,21.53
2023-03-04T07:31:44.020Z,24.70
2023-03-04T07:34:13.828Z,21.83
2023-03-04T07:36:41.119Z,25.40
2023-03-04T07:39:08.584Z,27.80
2023-03-04T07:41:36.358Z,23.33
2023-03-04T07:44:04.316Z,22.80
2023-03-04T07:46:31.531Z,23.77
2023-03-04T07:48:58.177Z,19.10
2023-03-04T07:51:26.828Z,18.07
2023-03-04T07:53:56.726Z,23.83
2023-03-04T07:56:25.922Z,22.97
2023-03-04T07:58:53.924Z,23.90
2023-03-04T08:01:29.455Z,21.00
2023-03-04T08:03:56.207Z,22.43
2023-03-04T08:06:23.652Z,24.87
2023-03-04T08:08:55.858Z,21.03
2023-03-04T08:11:22.676Z,23.17
2023-03-04T08:13:49.828Z,22.10
2023-03-04T08:16:18.536Z,32.90
2023-03-04T08:18:48.145Z,19.40
2023-03-04T08:21:16.428Z,24.73
2023-03-04T08:23:43.292Z,20.27
2023-03-04T08:26:13.236Z,42.83
2023-03-04T08:28:41.137Z,22.93
2023-03-04T08:31:08.181Z,23.07
2023-03-04T08:33:35.293Z,18.43
2023-03-04T08:36:02.044Z,23.83
2023-03-04T08:38:28.713Z,18.80
2023-03-04T08:40:56.973Z,18.93
2023-03-04T08:43:25.202Z,22.73
2023-03-04T08:45:53.880Z,22.50
2023-03-04T08:48:21.600Z,22.33
2023-03-04T08:50:49.127Z,21.40
2023-03-04T08:53:17.227Z,21.40
2023-03-04T08:55:45.005Z,21.13
2023-03-04T08:58:12.991Z,24.13
2023-03-04T09:00:43.149Z,23.37
2023-03-04T09:03:12.598Z,21.90
2023-03-04T09:05:39.380Z,19.90
2023-03-04T09:08:07.244Z,23.40
2023-03-04T09:10:34.004Z,26.00
2023-03-04T09:13:01.722Z,20.30
2023-03-04T09:15:28.774Z,21.47
2023-03-04T09:17:55.672Z,20.93
2023-03-04T09:20:23.107Z,22.63
2023-03-04T09:22:50.090Z,21.63
2023-03-04T09:25:16.902Z,24.13
2023-03-04T09:27:43.703Z,20.90
2023-03-04T09:30:11.037Z,28.30
2023-03-04T09:32:37.906Z,20.87
2023-03-04T09:35:05.234Z,18.40
2023-03-04T09:37:32.236Z,20.70
2023-03-04T09:39:58.908Z,22.60
2023-03-04T09:42:33.159Z,20.83
2023-03-04T09:45:00.551Z,22.23
2023-03-04T09:47:28.167Z,19.87
2023-03-04T09:49:58.517Z,19.33
2023-03-04T09:52:43.830Z,20.50
2023-03-04T09:55:28.132Z,19.23
2023-03-04T09:58:01.251Z,17.80
2023-03-04T10:00:47.718Z,20.00
2023-03-04T10:03:25.274Z,15.97
2023-03-04T10:06:06.077Z,14.90
2023-03-04T10:08:35.885Z,22.40
2023-03-04T10:11:06.429Z,19.93
2023-03-04T10:13:53.881Z,12.43
2023-03-04T10:16:25.769Z,11.60
2023-03-04T10:19:01.947Z,26.10
2023-03-04T10:21:50.429Z,16.70
2023-03-04T10:24:25.131Z,15.07
2023-03-04T10:27:03.425Z,16.20
2023-03-04T10:29:32.677Z,18.20
2023-03-04T10:31:59.902Z,22.83
2023-03-04T10:34:26.737Z,17.00
2023-03-04T10:37:06.960Z,23.60
2023-03-04T10:39:35.578Z,26.87
2023-03-04T10:42:03.894Z,20.17
2023-03-04T10:44:32.646Z,27.77
2023-03-04T10:46:59.330Z,21.10
2023-03-04T10:49:28.294Z,20.17
2023-03-04T10:52:19.054Z,17.40
2023-03-04T10:54:52.646Z,17.63
2023-03-04T10:57:20.630Z,26.70
2023-03-04T11:00:28.353Z,18.23
2023-03-04T11:03:17.830Z,17.83
2023-03-04T11:05:44.509Z,21.77
2023-03-04T11:08:19.454Z,17.30
2023-03-04T11:10:46.575Z,16.90
2023-03-04T11:13:20.850Z,15.17
2023-03-04T11:15:59.597Z,13.67
2023-03-04T11:18:34.557Z,16.77
2023-03-04T11:21:01.420Z,23.37
2023-03-04T11:23:52.885Z,47.90
2023-03-04T11:26:30.593Z,22.23
2023-03-04T11:29:00.710Z,26.93
2023-03-04T11:31:52.392Z,32.90
2023-03-04T11:34:52.070Z,19.33
2023-03-04T11:37:23.070Z,18.67
2023-03-04T11:39:58.415Z,18.13
2023-03-04T11:42:52.426Z,15.70
2023-03-04T11:45:35.077Z,17.50
2023-03-04T11:48:21.788Z,13.00
2023-03-04T11:50:50.764Z,18.73
2023-03-04T11:53:33.387Z,28.33
2023-03-04T11:56:32.182Z,16.67
2023-03-04T11:59:13.694Z,25.00
2023-03-04T12:01:49.278Z,21.27
2023-03-04T12:04:40.767Z,16.83
2023-03-04T12:07:25.630Z,21.30
2023-03-04T12:10:50.683Z,21.20
2023-03-04T12:13:36.451Z,36.83
2023-03-04T12:16:15.058Z,18.40
2023-03-04T12:19:16.258Z,18.53
2023-03-04T12:22:20.403Z,20.53
2023-03-04T12:25:22.072Z,22.97
2023-03-04T12:28:16.286Z,28.63
2023-03-04T12:31:03.051Z,16.63
2023-03-04T12:33:47.864Z,23.00
2023-03-04T12:36:20.825Z,21.17
2023-03-04T12:39:10.098Z,30.90
2023-03-04T12:41:55.655Z,16.37
2023-03-04T12:44:23.572Z,14.57
2023-03-04T12:47:27.965Z,25.57
2023-03-04T12:49:57.431Z,14.30
2023-03-04T12:52:49.747Z,20.80
2023-03-04T12:55:22.127Z,23.13
2023-03-04T12:57:50.550Z,25.37
2023-03-04T13:00:49.427Z,19.97
2023-03-04T13:03:24.432Z,14.73
2023-03-04T13:06:24.639Z,12.90
2023-03-04T13:09:02.348Z,11.17
2023-03-04T13:11:29.973Z,19.60
2023-03-04T13:14:05.207Z,15.57
2023-03-04T13:16:47.862Z,16.20
2023-03-04T13:19:45.694Z,18.70
2023-03-04T13:22:39.655Z,21.30
2023-03-04T13:25:44.416Z,14.53
2023-03-04T13:28:11.296Z,20.17
2023-03-04T13:30:40.701Z,13.77
2023-03-04T13:33:16.081Z,20.33
2023-03-04T13:36:06.292Z,15.60
2023-03-04T13:38:37.444Z,14.30
2023-03-04T13:41:28.304Z,13.20
2023-03-04T13:43:56.747Z,12.67
2023-03-04T13:46:24.239Z,15.07
2023-03-04T13:48:51.348Z,12.73
2023-03-04T13:51:31.598Z,16.23
2023-03-04T13:54:02.781Z,15.27
2023-03-04T13:56:37.478Z,19.93
2023-03-04T13:59:14.313Z,14.80
2023-03-04T14:01:43.818Z,15.60
2023-03-04T14:04:18.177Z,23.70
2023-03-04T14:06:50.280Z,20.20
2023-03-04T14:09:22.382Z,16.37
2023-03-04T14:11:51.730Z,18.63
2023-03-04T14:14:41.022Z,19.20
2023-03-04T14:17:21.502Z,22.13
2023-03-04T14:19:49.756Z,16.90
2023-03-04T14:22:31.558Z,20.40
2023-03-04T14:25:06.999Z,26.10
2023-03-04T14:27:36.322Z,23.83
2023-03-04T14:30:06.924Z,20.47
2023-03-04T14:32:33.906Z,21.73
2023-03-04T14:35:07.357Z,19.00
2023-03-04T14:37:46.893Z,29.07
2023-03-04T14:40:27.045Z,24.80
2023-03-04T14:43:04.684Z,25.47
2023-03-04T14:45:31.783Z,28.67
2023-03-04T14:48:04.860Z,22.27
2023-03-04T14:50:32.050Z,17.30
2023-03-04T14:53:29.057Z,16.37
2023-03-04T14:56:04.634Z,27.63
2023-03-04T14:58:39.672Z,24.20
2023-03-04T15:01:28.660Z,18.03
2023-03-04T15:04:01.224Z,27.47
2023-03-04T15:06:50.791Z,25.33
2023-03-04T15:09:23.711Z,23.87
2023-03-04T15:11:52.964Z,27.13
2023-03-04T15:14:46.846Z,20.17
2023-03-04T15:17:37.786Z,20.53
2023-03-04T15:20:07.593Z,22.83
2023-03-04T15:22:40.374Z,22.17
2023-03-04T15:25:07.336Z,29.13
2023-03-04T15:27:34.049Z,28.00
2023-03-04T15:30:02.270Z,21.77
2023-03-04T15:32:29.900Z,27.90
2023-03-04T15:34:56.784Z,21.53
2023-03-04T15:37:29.099Z,24.43
2023-03-04T15:39:57.549Z,26.13
2023-03-04T15:42:24.640Z,31.00
2023-03-04T15:44:51.335Z,57.20
2023-03-04T15:47:18.056Z,45.87
2023-03-04T15:49:47.360Z,23.90
2023-03-04T15:52:18.758Z,22.57
2023-03-04T15:54:46.505Z,30.83
2023-03-04T15:57:21.208Z,24.73
2023-03-04T15:59:47.899Z,24.13
2023-03-04T16:02:23.817Z,29.17
2023-03-04T16:04:50.924Z,28.53
2023-03-04T16:07:20.369Z,31.97
2023-03-04T16:09:52.635Z,59.43
2023-03-04T16:12:19.629Z,48.47
2023-03-04T16:14:46.972Z,99.27
2023-03-04T16:17:16.229Z,31.40
2023-03-04T16:19:42.941Z,39.47
2023-03-04T16:22:18.127Z,25.60
2023-03-04T16:24:44.865Z,25.27
2023-03-04T16:27:16.572Z,28.00
2023-03-04T16:29:43.601Z,26.20
2023-03-04T16:32:11.300Z,25.33
2023-03-04T16:34:38.057Z,20.33
2023-03-04T16:37:12.277Z,30.87
2023-03-04T16:39:41.182Z,27.07
2023-03-04T16:42:14.968Z,33.37
2023-03-04T16:44:41.833Z,42.20
2023-03-04T16:47:08.532Z,29.23
2023-03-04T16:49:35.370Z,24.80
2023-03-04T16:52:02.754Z,34.43
2023-03-04T16:54:31.940Z,31.00
2023-03-04T16:56:59.614Z,25.23
2023-03-04T16:59:27.001Z,31.33
2023-03-04T17:01:54.172Z,27.53
2023-03-04T17:04:22.283Z,26.27
2023-03-04T17:06:49.340Z,24.93
2023-03-04T17:09:16.093Z,25.83
2023-03-04T17:11:43.140Z,29.40
2023-03-04T17:14:09.907Z,39.80
2023-03-04T17:16:36.700Z,26.33
2023-03-04T17:19:03.394Z,27.93
2023-03-04T17:21:30.085Z,27.30
2023-03-04T17:23:56.832Z,35.20
2023-03-04T17:26:23.583Z,28.20
2023-03-04T17:28:50.794Z,30.50
2023-03-04T17:31:19.485Z,19.47
2023-03-04T17:33:47.068Z,25.73
2023-03-04T17:36:15.987Z,26.20
2023-03-04T17:38:43.086Z,19.57
2023-03-04T17:41:15.893Z,24.70
2023-03-04T17:43:47.805Z,23.80
2023-03-04T17:46:16.443Z,22.33
2023-03-04T17:48:43.744Z,26.37
2023-03-04T17:51:11.770Z,24.57
2023-03-04T17:53:38.884Z,23.90
2023-03-04T17:56:08.375Z,29.23
2023-03-04T17:58:36.868Z,19.10
2023-03-04T18:01:11.348Z,21.33
2023-03-04T18:03:38.123Z,15.83
2023-03-04T18:06:05.036Z,27.73
2023-03-04T18:08:31.956Z,26.17
2023-03-04T18:10:58.958Z,34.93
2023-03-04T18:13:25.666Z,24.97
2023-03-04T18:15:52.781Z,21.23
2023-03-04T18:18:19.519Z,18.53
2023-03-04T18:20:46.197Z,22.63
2023-03-04T18:23:12.910Z,20.87
2023-03-04T18:25:40.096Z,21.60
2023-03-04T18:28:06.773Z,17.80
2023-03-04T18:30:33.733Z,22.87
2023-03-04T18:33:01.990Z,20.57
2023-03-04T18:35:29.400Z,23.07
2023-03-04T18:37:56.505Z,20.83
2023-03-04T18:40:23.351Z,21.13
2023-03-04T18:42:50.895Z,22.80
2023-03-04T18:45:17.587Z,21.57
2023-03-04T18:47:50.368Z,29.00
2023-03-04T18:50:18.081Z,34.73
2023-03-04T18:52:44.916Z,49.07
2023-03-04T18:55:12.988Z,31.70
2023-03-04T18:57:42.199Z,33.60
2023-03-04T19:00:10.640Z,25.80
2023-03-04T19:02:43.445Z,26.80
2023-03-04T19:05:14.293Z,28.00
2023-03-04T19:07:40.942Z,27.10
2023-03-04T19:10:08.698Z,35.63
2023-03-04T19:12:35.621Z,35.37
2023-03-04T19:15:02.678Z,32.57
2023-03-04T19:17:32.590Z,34.50
2023-03-04T19:19:59.681Z,27.20
2023-03-04T19:22:26.414Z,28.03
2023-03-04T19:24:53.152Z,31.43
2023-03-04T19:27:19.958Z,36.43
2023-03-04T19:29:48.106Z,18.37
2023-03-04T19:32:17.399Z,22.40
2023-03-04T19:34:45.245Z,23.03
2023-03-04T19:37:13.073Z,21.37
2023-03-04T19:39:39.956Z,25.47
2023-03-04T19:42:06.657Z,24.33
2023-03-04T19:44:33.290Z,20.30
2023-03-04T19:47:00.321Z,17.80
2023-03-04T19:49:27.040Z,23.30
2023-03-04T19:51:53.949Z,24.67
2023-03-04T19:54:20.627Z,23.90
2023-03-04T19:56:47.478Z,21.20
2023-03-04T19:59:14.221Z,23.37
2023-03-04T20:01:41.996Z,19.17
2023-03-04T20:04:11.551Z,18.23
2023-03-04T20:06:41.186Z,25.43
2023-03-04T20:09:07.963Z,23.83
2023-03-04T20:11:41.501Z,28.80
2023-03-04T20:14:17.644Z,24.00
2023-03-04T20:16:44.360Z,19.03
2023-03-04T20:19:11.044Z,20.00
2023-03-04T20:21:37.725Z,25.07
2023-03-04T20:24:04.806Z,30.43
2023-03-04T20:26:32.293Z,33.47
2023-03-04T20:28:59.863Z,30.23
2023-03-04T20:31:28.361Z,25.73
2023-03-04T20:33:56.067Z,33.73
2023-03-04T20:36:25.065Z,29.57
2023-03-04T20:39:02.065Z,37.53
2023-03-04T20:41:30.294Z,27.87
2023-03-04T20:43:57.338Z,28.87
2023-03-04T20:46:34.852Z,22.60
2023-03-04T20:49:05.188Z,34.03
2023-03-04T20:51:33.689Z,26.13
2023-03-04T20:54:00.885Z,24.97
2023-03-04T20:56:28.341Z,26.43
2023-03-04T20:58:56.974Z,30.83
2023-03-04T21:01:24.963Z,22.80
2023-03-04T21:03:52.108Z,25.30
2023-03-04T21:06:19.296Z,22.93
2023-03-04T21:08:46.720Z,28.13
2023-03-04T21:11:14.627Z,23.77
2023-03-04T21:13:42.912Z,29.37
2023-03-04T21:16:15.541Z,24.67
2023-03-04T21:18:43.541Z,25.90
2023-03-04T21:21:22.721Z,28.90
2023-03-04T21:23:50.774Z,26.53
2023-03-04T21:26:18.805Z,30.60
2023-03-04T21:28:46.393Z,31.70
2023-03-04T21:31:18.931Z,29.03
2023-03-04T21:33:46.773Z,23.53
2023-03-04T21:36:14.017Z,25.20
2023-03-04T21:38:41.945Z,22.33
2023-03-04T21:41:14.166Z,29.43
2023-03-04T21:43:40.952Z,29.20
2023-03-04T21:46:09.631Z,29.00
2023-03-04T21:48:36.570Z,25.33
2023-03-04T21:51:05.668Z,31.30
2023-03-04T21:53:34.483Z,20.60
2023-03-04T21:56:01.296Z,29.43
2023-03-04T21:58:28.723Z,24.67
2023-03-04T22:00:57.090Z,24.23
2023-03-04T22:03:23.886Z,24.97
2023-03-04T22:05:51.132Z,25.63
2023-03-04T22:08:20.480Z,22.37
2023-03-04T22:10:47.772Z,32.73
2023-03-04T22:13:16.107Z,44.10
2023-03-04T22:15:44.243Z,30.23
2023-03-04T22:18:13.251Z,29.33
2023-03-04T22:20:42.621Z,27.10
2023-03-04T22:23:10.296Z,24.70
2023-03-04T22:25:39.524Z,37.13
2023-03-04T22:28:07.648Z,34.13
2023-03-04T22:30:36.154Z,27.40
2023-03-04T22:33:03.218Z,34.53
2023-03-04T22:35:30.605Z,32.57
2023-03-04T22:37:57.767Z,26.33
2023-03-04T22:40:24.660Z,28.77
2023-03-04T22:42:51.728Z,32.70
2023-03-04T22:45:18.852Z,26.23
2023-03-04T22:47:52.731Z,30.80
2023-03-04T22:50:20.847Z,25.97
2023-03-04T22:52:48.490Z,33.77
2023-03-04T22:55:17.119Z,28.33
2023-03-04T22:57:43.992Z,27.37
2023-03-04T23:00:25.820Z,31.77
2023-03-04T23:02:52.899Z,37.23
2023-03-04T23:05:20.936Z,27.47
2023-03-04T23:07:48.639Z,27.37
2023-03-04T23:10:20.085Z,31.93
2023-03-04T23:12:46.881Z,26.03
2023-03-04T23:15:15.588Z,35.40
2023-03-04T23:17:42.902Z,29.30
2023-03-04T23:20:16.181Z,22.90
2023-03-04T23:22:43.296Z,36.43
2023-03-04T23:25:10.139Z,29.40
2023-03-04T23:27:38.170Z,28.07
2023-03-04T23:30:07.866Z,28.47
2023-03-04T23:32:34.557Z,25.00
2023-03-04T23:35:01.257Z,29.97
2023-03-04T23:37:28.010Z,29.23
2023-03-04T23:39:54.741Z,27.27
2023-03-04T23:42:21.415Z,36.37
2023-03-04T23:44:48.077Z,27.77
2023-03-04T23:47:14.752Z,28.43
2023-03-04T23:49:41.401Z,35.83
2023-03-04T23:52:08.190Z,24.37
2023-03-04T23:54:34.833Z,28.57
2023-03-04T23:57:02.131Z,25.80
2023-03-04T23:59:29.378Z,26.80
